sensor_id;sensor_type;location;lat;lon;timestamp;P1;durP1;ratioP1;P2;durP2;ratioP2
81960;SDS011;71462;50.650;6.888;2023-12-20T00:01:15;2.70;;;1.70;;
81960;SDS011;71462;50.650;6.888;2023-12-20T00:03:42;5.65;;;1.35;;
81960;SDS011;71462;50.650;6.888;2023-12-20T00:06:10;1.88;;;1.25;;
81960;SDS011;71462;50.650;6.888;2023-12-20T00:08:37;2.53;;;1.35;;
81960;SDS011;71462;50.650;6.888;2023-12-20T00:11:05;1.75;;;1.27;;
81960;SDS011;71462;50.650;6.888;2023-12-20T00:13:34;2.28;;;1.50;;
81960;SDS011;71462;50.650;6.888;2023-12-20T00:16:02;1.38;;;0.90;;
81960;SDS011;71462;50.650;6.888;2023-12-20T00:18:30;3.10;;;1.10;;
81960;SDS011;71462;50.650;6.888;2023-12-20T00:20:58;1.60;;;0.95;;
81960;SDS011;71462;50.650;6.888;2023-12-20T00:23:26;1.70;;;1.10;;
81960;SDS011;71462;50.650;6.888;2023-12-20T00:25:54;1.98;;;1.13;;
81960;SDS011;71462;50.650;6.888;2023-12-20T00:28:21;2.33;;;1.00;;
81960;SDS011;71462;50.650;6.888;2023-12-20T00:30:51;1.75;;;0.77;;
81960;SDS011;71462;50.650;6.888;2023-12-20T00:33:18;2.42;;;0.90;;
81960;SDS011;71462;50.650;6.888;2023-12-20T00:35:46;1.25;;;0.82;;
81960;SDS011;71462;50.650;6.888;2023-12-20T00:38:14;0.93;;;0.63;;
81960;SDS011;71462;50.650;6.888;2023-12-20T00:40:41;0.52;;;0.52;;
81960;SDS011;71462;50.650;6.888;2023-12-20T00:43:09;0.70;;;0.70;;
81960;SDS011;71462;50.650;6.888;2023-12-20T00:45:37;1.05;;;0.80;;
81960;SDS011;71462;50.650;6.888;2023-12-20T00:48:07;1.45;;;0.95;;
81960;SDS011;71462;50.650;6.888;2023-12-20T00:50:35;1.40;;;0.90;;
81960;SDS011;71462;50.650;6.888;2023-12-20T00:53:02;0.98;;;0.70;;
81960;SDS011;71462;50.650;6.888;2023-12-20T00:55:31;1.42;;;0.90;;
81960;SDS011;71462;50.650;6.888;2023-12-20T00:58:00;1.30;;;0.90;;
81960;SDS011;71462;50.650;6.888;2023-12-20T01:00:27;1.52;;;0.98;;
81960;SDS011;71462;50.650;6.888;2023-12-20T01:02:55;1.77;;;1.20;;
81960;SDS011;71462;50.650;6.888;2023-12-20T01:05:24;1.02;;;0.93;;
81960;SDS011;71462;50.650;6.888;2023-12-20T01:07:51;2.10;;;1.13;;
81960;SDS011;71462;50.650;6.888;2023-12-20T01:10:19;2.10;;;1.27;;
81960;SDS011;71462;50.650;6.888;2023-12-20T01:12:48;1.23;;;1.00;;
81960;SDS011;71462;50.650;6.888;2023-12-20T01:15:16;2.30;;;1.40;;
81960;SDS011;71462;50.650;6.888;2023-12-20T01:17:43;2.30;;;1.40;;
81960;SDS011;71462;50.650;6.888;2023-12-20T01:20:11;3.55;;;2.30;;
81960;SDS011;71462;50.650;6.888;2023-12-20T01:22:41;5.97;;;2.42;;
81960;SDS011;71462;50.650;6.888;2023-12-20T01:25:09;3.92;;;2.65;;
81960;SDS011;71462;50.650;6.888;2023-12-20T01:27:36;6.25;;;3.45;;
81960;SDS011;71462;50.650;6.888;2023-12-20T01:30:04;5.10;;;2.92;;
81960;SDS011;71462;50.650;6.888;2023-12-20T01:32:33;6.05;;;3.92;;
81960;SDS011;71462;50.650;6.888;2023-12-20T01:35:00;7.78;;;4.22;;
81960;SDS011;71462;50.650;6.888;2023-12-20T01:37:29;8.55;;;3.85;;
81960;SDS011;71462;50.650;6.888;2023-12-20T01:39:58;7.50;;;4.80;;
81960;SDS011;71462;50.650;6.888;2023-12-20T01:42:26;9.40;;;5.22;;
81960;SDS011;71462;50.650;6.888;2023-12-20T01:44:53;12.15;;;5.70;;
81960;SDS011;71462;50.650;6.888;2023-12-20T01:47:21;13.48;;;4.90;;
81960;SDS011;71462;50.650;6.888;2023-12-20T01:49:49;12.35;;;5.65;;
81960;SDS011;71462;50.650;6.888;2023-12-20T01:52:17;9.85;;;5.63;;
81960;SDS011;71462;50.650;6.888;2023-12-20T01:54:44;9.57;;;5.18;;
81960;SDS011;71462;50.650;6.888;2023-12-20T01:57:14;9.93;;;5.53;;
81960;SDS011;71462;50.650;6.888;2023-12-20T01:59:42;10.60;;;5.68;;
81960;SDS011;71462;50.650;6.888;2023-12-20T02:02:11;9.80;;;6.85;;
81960;SDS011;71462;50.650;6.888;2023-12-20T02:04:39;9.02;;;6.13;;
81960;SDS011;71462;50.650;6.888;2023-12-20T02:07:07;10.05;;;5.75;;
81960;SDS011;71462;50.650;6.888;2023-12-20T02:09:36;9.23;;;5.63;;
81960;SDS011;71462;50.650;6.888;2023-12-20T02:12:04;8.88;;;4.38;;
81960;SDS011;71462;50.650;6.888;2023-12-20T02:14:34;8.43;;;3.60;;
81960;SDS011;71462;50.650;6.888;2023-12-20T02:17:01;7.53;;;3.20;;
81960;SDS011;71462;50.650;6.888;2023-12-20T02:19:29;7.97;;;2.90;;
81960;SDS011;71462;50.650;6.888;2023-12-20T02:22:09;11.73;;;3.30;;
81960;SDS011;71462;50.650;6.888;2023-12-20T02:24:37;7.15;;;3.38;;
81960;SDS011;71462;50.650;6.888;2023-12-20T02:27:06;11.70;;;3.03;;
81960;SDS011;71462;50.650;6.888;2023-12-20T02:29:35;8.55;;;2.90;;
81960;SDS011;71462;50.650;6.888;2023-12-20T02:32:03;9.32;;;2.38;;
81960;SDS011;71462;50.650;6.888;2023-12-20T02:34:31;6.50;;;2.13;;
81960;SDS011;71462;50.650;6.888;2023-12-20T02:36:59;8.60;;;2.85;;
81960;SDS011;71462;50.650;6.888;2023-12-20T02:39:28;8.10;;;2.90;;
81960;SDS011;71462;50.650;6.888;2023-12-20T02:41:55;8.05;;;2.83;;
81960;SDS011;71462;50.650;6.888;2023-12-20T02:44:23;7.38;;;2.97;;
81960;SDS011;71462;50.650;6.888;2023-12-20T02:46:51;5.47;;;3.10;;
81960;SDS011;71462;50.650;6.888;2023-12-20T02:49:18;8.10;;;2.42;;
81960;SDS011;71462;50.650;6.888;2023-12-20T02:51:46;12.02;;;2.45;;
81960;SDS011;71462;50.650;6.888;2023-12-20T02:54:14;11.20;;;2.70;;
81960;SDS011;71462;50.650;6.888;2023-12-20T02:56:43;10.88;;;2.33;;
81960;SDS011;71462;50.650;6.888;2023-12-20T02:59:11;12.60;;;2.63;;
81960;SDS011;71462;50.650;6.888;2023-12-20T03:01:41;7.18;;;2.20;;
81960;SDS011;71462;50.650;6.888;2023-12-20T03:04:09;9.52;;;2.60;;
81960;SDS011;71462;50.650;6.888;2023-12-20T03:06:37;8.35;;;2.38;;
81960;SDS011;71462;50.650;6.888;2023-12-20T03:09:05;9.88;;;2.53;;
81960;SDS011;71462;50.650;6.888;2023-12-20T03:11:33;7.43;;;2.15;;
81960;SDS011;71462;50.650;6.888;2023-12-20T03:14:02;8.10;;;2.60;;
81960;SDS011;71462;50.650;6.888;2023-12-20T03:16:29;10.32;;;2.50;;
81960;SDS011;71462;50.650;6.888;2023-12-20T03:18:58;7.78;;;2.35;;
81960;SDS011;71462;50.650;6.888;2023-12-20T03:21:26;12.43;;;2.75;;
81960;SDS011;71462;50.650;6.888;2023-12-20T03:23:54;16.00;;;2.72;;
81960;SDS011;71462;50.650;6.888;2023-12-20T03:26:21;9.50;;;2.70;;
81960;SDS011;71462;50.650;6.888;2023-12-20T03:28:49;9.18;;;2.20;;
81960;SDS011;71462;50.650;6.888;2023-12-20T03:31:19;10.02;;;2.55;;
81960;SDS011;71462;50.650;6.888;2023-12-20T03:33:47;11.30;;;2.53;;
81960;SDS011;71462;50.650;6.888;2023-12-20T03:36:15;9.52;;;2.15;;
81960;SDS011;71462;50.650;6.888;2023-12-20T03:38:43;5.85;;;2.22;;
81960;SDS011;71462;50.650;6.888;2023-12-20T03:41:11;14.30;;;2.30;;
81960;SDS011;71462;50.650;6.888;2023-12-20T03:43:39;10.25;;;2.67;;
81960;SDS011;71462;50.650;6.888;2023-12-20T03:46:07;9.73;;;2.30;;
81960;SDS011;71462;50.650;6.888;2023-12-20T03:48:37;12.45;;;3.13;;
81960;SDS011;71462;50.650;6.888;2023-12-20T03:51:05;8.13;;;2.33;;
81960;SDS011;71462;50.650;6.888;2023-12-20T03:53:33;8.00;;;2.35;;
81960;SDS011;71462;50.650;6.888;2023-12-20T03:56:00;12.88;;;2.63;;
81960;SDS011;71462;50.650;6.888;2023-12-20T03:58:28;10.90;;;3.40;;
81960;SDS011;71462;50.650;6.888;2023-12-20T04:00:56;9.15;;;2.30;;
81960;SDS011;71462;50.650;6.888;2023-12-20T04:03:24;7.80;;;2.55;;
81960;SDS011;71462;50.650;6.888;2023-12-20T04:05:53;7.88;;;2.63;;
81960;SDS011;71462;50.650;6.888;2023-12-20T04:08:20;9.57;;;2.60;;
81960;SDS011;71462;50.650;6.888;2023-12-20T04:10:48;10.32;;;2.50;;
81960;SDS011;71462;50.650;6.888;2023-12-20T04:13:16;8.68;;;2.50;;
81960;SDS011;71462;50.650;6.888;2023-12-20T04:15:44;16.75;;;2.78;;
81960;SDS011;71462;50.650;6.888;2023-12-20T04:18:12;8.13;;;2.88;;
81960;SDS011;71462;50.650;6.888;2023-12-20T04:20:40;12.70;;;2.65;;
81960;SDS011;71462;50.650;6.888;2023-12-20T04:23:09;9.13;;;3.00;;
81960;SDS011;71462;50.650;6.888;2023-12-20T04:25:36;8.85;;;3.03;;
81960;SDS011;71462;50.650;6.888;2023-12-20T04:28:04;7.65;;;2.75;;
81960;SDS011;71462;50.650;6.888;2023-12-20T04:30:32;13.50;;;3.50;;
81960;SDS011;71462;50.650;6.888;2023-12-20T04:33:00;6.82;;;2.58;;
81960;SDS011;71462;50.650;6.888;2023-12-20T04:35:28;12.10;;;3.75;;
81960;SDS011;71462;50.650;6.888;2023-12-20T04:37:56;6.68;;;2.63;;
81960;SDS011;71462;50.650;6.888;2023-12-20T04:40:26;11.73;;;3.00;;
81960;SDS011;71462;50.650;6.888;2023-12-20T04:42:57;12.45;;;3.10;;
81960;SDS011;71462;50.650;6.888;2023-12-20T04:45:24;11.60;;;2.80;;
81960;SDS011;71462;50.650;6.888;2023-12-20T04:47:52;10.25;;;2.55;;
81960;SDS011;71462;50.650;6.888;2023-12-20T04:50:19;9.75;;;3.10;;
81960;SDS011;71462;50.650;6.888;2023-12-20T04:52:47;10.43;;;3.15;;
81960;SDS011;71462;50.650;6.888;2023-12-20T04:55:15;12.77;;;3.28;;
81960;SDS011;71462;50.650;6.888;2023-12-20T04:57:44;10.55;;;2.78;;
81960;SDS011;71462;50.650;6.888;2023-12-20T05:00:13;10.40;;;3.47;;
81960;SDS011;71462;50.650;6.888;2023-12-20T05:02:42;7.57;;;2.60;;
81960;SDS011;71462;50.650;6.888;2023-12-20T05:05:09;8.77;;;2.63;;
81960;SDS011;71462;50.650;6.888;2023-12-20T05:07:37;18.30;;;2.70;;
81960;SDS011;71462;50.650;6.888;2023-12-20T05:10:05;12.75;;;2.92;;
81960;SDS011;71462;50.650;6.888;2023-12-20T05:12:37;9.50;;;2.80;;
81960;SDS011;71462;50.650;6.888;2023-12-20T05:15:07;13.60;;;2.72;;
81960;SDS011;71462;50.650;6.888;2023-12-20T05:17:35;7.18;;;2.65;;
81960;SDS011;71462;50.650;6.888;2023-12-20T05:20:11;24.08;;;7.70;;
81960;SDS011;71462;50.650;6.888;2023-12-20T05:22:39;34.70;;;12.35;;
81960;SDS011;71462;50.650;6.888;2023-12-20T05:25:08;14.02;;;3.20;;
81960;SDS011;71462;50.650;6.888;2023-12-20T05:27:36;11.60;;;2.80;;
81960;SDS011;71462;50.650;6.888;2023-12-20T05:30:04;9.90;;;2.70;;
81960;SDS011;71462;50.650;6.888;2023-12-20T05:32:33;11.50;;;3.70;;
81960;SDS011;71462;50.650;6.888;2023-12-20T05:35:03;10.95;;;2.63;;
81960;SDS011;71462;50.650;6.888;2023-12-20T05:37:31;12.57;;;3.05;;
81960;SDS011;71462;50.650;6.888;2023-12-20T05:39:59;12.77;;;4.13;;
81960;SDS011;71462;50.650;6.888;2023-12-20T05:42:27;10.57;;;3.00;;
81960;SDS011;71462;50.650;6.888;2023-12-20T05:44:54;14.20;;;2.95;;
81960;SDS011;71462;50.650;6.888;2023-12-20T05:47:24;8.77;;;3.25;;
81960;SDS011;71462;50.650;6.888;2023-12-20T05:49:53;11.27;;;3.70;;
81960;SDS011;71462;50.650;6.888;2023-12-20T05:52:21;11.63;;;2.92;;
81960;SDS011;71462;50.650;6.888;2023-12-20T05:54:49;15.38;;;3.25;;
81960;SDS011;71462;50.650;6.888;2023-12-20T05:57:17;11.02;;;2.70;;
81960;SDS011;71462;50.650;6.888;2023-12-20T05:59:44;14.77;;;3.55;;
81960;SDS011;71462;50.650;6.888;2023-12-20T06:02:12;9.77;;;2.90;;
81960;SDS011;71462;50.650;6.888;2023-12-20T06:04:41;8.70;;;2.95;;
81960;SDS011;71462;50.650;6.888;2023-12-20T06:07:12;13.68;;;3.47;;
81960;SDS011;71462;50.650;6.888;2023-12-20T06:09:40;9.93;;;2.92;;
81960;SDS011;71462;50.650;6.888;2023-12-20T06:12:08;9.73;;;2.58;;
81960;SDS011;71462;50.650;6.888;2023-12-20T06:14:35;12.57;;;2.90;;
81960;SDS011;71462;50.650;6.888;2023-12-20T06:17:03;9.35;;;3.00;;
81960;SDS011;71462;50.650;6.888;2023-12-20T06:19:31;15.88;;;3.20;;
81960;SDS011;71462;50.650;6.888;2023-12-20T06:21:58;10.18;;;2.58;;
81960;SDS011;71462;50.650;6.888;2023-12-20T06:24:27;12.23;;;3.05;;
81960;SDS011;71462;50.650;6.888;2023-12-20T06:26:56;8.98;;;2.92;;
81960;SDS011;71462;50.650;6.888;2023-12-20T06:29:23;10.95;;;3.28;;
81960;SDS011;71462;50.650;6.888;2023-12-20T06:31:51;8.35;;;3.13;;
81960;SDS011;71462;50.650;6.888;2023-12-20T06:34:18;16.00;;;3.10;;
81960;SDS011;71462;50.650;6.888;2023-12-20T06:36:46;11.82;;;3.35;;
81960;SDS011;71462;50.650;6.888;2023-12-20T06:39:14;15.38;;;3.80;;
81960;SDS011;71462;50.650;6.888;2023-12-20T06:41:43;11.85;;;3.17;;
81960;SDS011;71462;50.650;6.888;2023-12-20T06:44:11;11.32;;;2.85;;
81960;SDS011;71462;50.650;6.888;2023-12-20T06:46:39;12.90;;;3.53;;
81960;SDS011;71462;50.650;6.888;2023-12-20T06:49:06;11.25;;;3.65;;
81960;SDS011;71462;50.650;6.888;2023-12-20T06:51:34;18.38;;;3.42;;
81960;SDS011;71462;50.650;6.888;2023-12-20T06:54:03;16.75;;;3.13;;
81960;SDS011;71462;50.650;6.888;2023-12-20T06:56:32;12.43;;;3.30;;
81960;SDS011;71462;50.650;6.888;2023-12-20T06:59:01;10.38;;;3.10;;
81960;SDS011;71462;50.650;6.888;2023-12-20T07:01:28;14.05;;;3.00;;
81960;SDS011;71462;50.650;6.888;2023-12-20T07:03:56;8.45;;;2.80;;
81960;SDS011;71462;50.650;6.888;2023-12-20T07:06:27;12.00;;;3.15;;
81960;SDS011;71462;50.650;6.888;2023-12-20T07:08:54;16.27;;;3.30;;
81960;SDS011;71462;50.650;6.888;2023-12-20T07:11:22;15.00;;;4.15;;
81960;SDS011;71462;50.650;6.888;2023-12-20T07:13:50;11.30;;;2.78;;
81960;SDS011;71462;50.650;6.888;2023-12-20T07:16:19;10.15;;;2.85;;
81960;SDS011;71462;50.650;6.888;2023-12-20T07:18:47;12.45;;;3.30;;
81960;SDS011;71462;50.650;6.888;2023-12-20T07:21:15;14.48;;;3.10;;
81960;SDS011;71462;50.650;6.888;2023-12-20T07:23:43;7.97;;;2.67;;
81960;SDS011;71462;50.650;6.888;2023-12-20T07:26:11;15.43;;;3.45;;
81960;SDS011;71462;50.650;6.888;2023-12-20T07:28:40;8.85;;;2.95;;
81960;SDS011;71462;50.650;6.888;2023-12-20T07:31:08;9.65;;;2.97;;
81960;SDS011;71462;50.650;6.888;2023-12-20T07:33:37;9.90;;;3.40;;
81960;SDS011;71462;50.650;6.888;2023-12-20T07:36:06;9.18;;;2.83;;
81960;SDS011;71462;50.650;6.888;2023-12-20T07:38:38;15.98;;;3.70;;
81960;SDS011;71462;50.650;6.888;2023-12-20T07:41:09;11.15;;;3.03;;
81960;SDS011;71462;50.650;6.888;2023-12-20T07:43:39;11.18;;;3.40;;
81960;SDS011;71462;50.650;6.888;2023-12-20T07:46:08;11.90;;;3.10;;
81960;SDS011;71462;50.650;6.888;2023-12-20T07:48:37;10.30;;;3.28;;
81960;SDS011;71462;50.650;6.888;2023-12-20T07:51:09;12.40;;;2.80;;
81960;SDS011;71462;50.650;6.888;2023-12-20T07:53:36;11.07;;;3.70;;
81960;SDS011;71462;50.650;6.888;2023-12-20T07:56:13;14.30;;;3.20;;
81960;SDS011;71462;50.650;6.888;2023-12-20T07:58:45;16.13;;;3.22;;
81960;SDS011;71462;50.650;6.888;2023-12-20T08:01:19;8.70;;;2.72;;
81960;SDS011;71462;50.650;6.888;2023-12-20T08:03:49;15.93;;;3.72;;
81960;SDS011;71462;50.650;6.888;2023-12-20T08:06:21;9.93;;;3.10;;
81960;SDS011;71462;50.650;6.888;2023-12-20T08:08:49;11.82;;;3.05;;
81960;SDS011;71462;50.650;6.888;2023-12-20T08:11:27;13.32;;;2.47;;
81960;SDS011;71462;50.650;6.888;2023-12-20T08:13:55;15.00;;;3.03;;
81960;SDS011;71462;50.650;6.888;2023-12-20T08:16:23;10.05;;;2.95;;
81960;SDS011;71462;50.650;6.888;2023-12-20T08:18:52;9.68;;;2.97;;
81960;SDS011;71462;50.650;6.888;2023-12-20T08:21:20;11.43;;;3.35;;
81960;SDS011;71462;50.650;6.888;2023-12-20T08:23:49;13.48;;;3.72;;
81960;SDS011;71462;50.650;6.888;2023-12-20T08:26:18;13.82;;;3.55;;
81960;SDS011;71462;50.650;6.888;2023-12-20T08:28:56;15.00;;;3.03;;
81960;SDS011;71462;50.650;6.888;2023-12-20T08:31:27;9.60;;;2.75;;
81960;SDS011;71462;50.650;6.888;2023-12-20T08:33:56;14.77;;;3.13;;
81960;SDS011;71462;50.650;6.888;2023-12-20T08:36:24;8.10;;;2.90;;
81960;SDS011;71462;50.650;6.888;2023-12-20T08:38:52;11.40;;;3.50;;
81960;SDS011;71462;50.650;6.888;2023-12-20T08:41:21;9.48;;;2.85;;
81960;SDS011;71462;50.650;6.888;2023-12-20T08:43:49;11.60;;;3.40;;
81960;SDS011;71462;50.650;6.888;2023-12-20T08:46:17;12.07;;;3.47;;
81960;SDS011;71462;50.650;6.888;2023-12-20T08:48:45;15.77;;;4.10;;
81960;SDS011;71462;50.650;6.888;2023-12-20T08:51:16;13.63;;;2.90;;
81960;SDS011;71462;50.650;6.888;2023-12-20T08:53:43;10.63;;;2.88;;
81960;SDS011;71462;50.650;6.888;2023-12-20T08:56:15;11.95;;;2.67;;
81960;SDS011;71462;50.650;6.888;2023-12-20T08:58:44;11.52;;;3.17;;
81960;SDS011;71462;50.650;6.888;2023-12-20T09:01:13;5.53;;;2.45;;
81960;SDS011;71462;50.650;6.888;2023-12-20T09:03:41;9.80;;;2.63;;
81960;SDS011;71462;50.650;6.888;2023-12-20T09:06:12;11.25;;;2.85;;
81960;SDS011;71462;50.650;6.888;2023-12-20T09:08:41;14.38;;;3.28;;
81960;SDS011;71462;50.650;6.888;2023-12-20T09:11:09;6.30;;;2.05;;
81960;SDS011;71462;50.650;6.888;2023-12-20T09:13:39;10.30;;;2.53;;
81960;SDS011;71462;50.650;6.888;2023-12-20T09:16:07;9.05;;;2.90;;
81960;SDS011;71462;50.650;6.888;2023-12-20T09:18:35;9.45;;;2.60;;
81960;SDS011;71462;50.650;6.888;2023-12-20T09:21:03;7.05;;;2.33;;
81960;SDS011;71462;50.650;6.888;2023-12-20T09:23:31;16.08;;;2.80;;
81960;SDS011;71462;50.650;6.888;2023-12-20T09:26:00;10.23;;;3.08;;
81960;SDS011;71462;50.650;6.888;2023-12-20T09:28:28;9.73;;;2.95;;
81960;SDS011;71462;50.650;6.888;2023-12-20T09:30:56;10.43;;;2.53;;
81960;SDS011;71462;50.650;6.888;2023-12-20T09:33:23;9.00;;;2.65;;
81960;SDS011;71462;50.650;6.888;2023-12-20T09:35:53;10.27;;;2.72;;
81960;SDS011;71462;50.650;6.888;2023-12-20T09:38:21;7.40;;;2.55;;
81960;SDS011;71462;50.650;6.888;2023-12-20T09:40:49;10.63;;;3.03;;
81960;SDS011;71462;50.650;6.888;2023-12-20T09:43:19;8.07;;;2.70;;
81960;SDS011;71462;50.650;6.888;2023-12-20T09:45:47;11.50;;;2.92;;
81960;SDS011;71462;50.650;6.888;2023-12-20T09:48:16;12.68;;;3.15;;
81960;SDS011;71462;50.650;6.888;2023-12-20T09:50:45;9.93;;;2.80;;
81960;SDS011;71462;50.650;6.888;2023-12-20T09:53:19;8.85;;;2.70;;
81960;SDS011;71462;50.650;6.888;2023-12-20T09:55:50;10.18;;;2.60;;
81960;SDS011;71462;50.650;6.888;2023-12-20T09:58:21;7.70;;;2.33;;
81960;SDS011;71462;50.650;6.888;2023-12-20T10:00:49;8.18;;;2.33;;
81960;SDS011;71462;50.650;6.888;2023-12-20T10:03:18;13.23;;;2.53;;
81960;SDS011;71462;50.650;6.888;2023-12-20T10:05:52;12.18;;;3.00;;
81960;SDS011;71462;50.650;6.888;2023-12-20T10:08:24;11.95;;;3.28;;
81960;SDS011;71462;50.650;6.888;2023-12-20T10:10:52;10.10;;;2.55;;
81960;SDS011;71462;50.650;6.888;2023-12-20T10:13:21;9.30;;;3.03;;
81960;SDS011;71462;50.650;6.888;2023-12-20T10:15:49;5.57;;;2.22;;
81960;SDS011;71462;50.650;6.888;2023-12-20T10:18:18;11.13;;;2.88;;
81960;SDS011;71462;50.650;6.888;2023-12-20T10:20:46;11.73;;;3.03;;
81960;SDS011;71462;50.650;6.888;2023-12-20T10:23:13;11.80;;;2.95;;
81960;SDS011;71462;50.650;6.888;2023-12-20T10:25:42;9.38;;;2.67;;
81960;SDS011;71462;50.650;6.888;2023-12-20T10:28:10;10.25;;;2.53;;
81960;SDS011;71462;50.650;6.888;2023-12-20T10:30:41;11.88;;;2.90;;
81960;SDS011;71462;50.650;6.888;2023-12-20T10:33:10;11.25;;;3.08;;
81960;SDS011;71462;50.650;6.888;2023-12-20T10:35:38;11.35;;;3.53;;
81960;SDS011;71462;50.650;6.888;2023-12-20T10:38:11;13.90;;;4.05;;
81960;SDS011;71462;50.650;6.888;2023-12-20T10:40:40;11.40;;;3.15;;
81960;SDS011;71462;50.650;6.888;2023-12-20T10:43:09;10.52;;;2.83;;
81960;SDS011;71462;50.650;6.888;2023-12-20T10:45:38;10.30;;;2.83;;
81960;SDS011;71462;50.650;6.888;2023-12-20T10:48:07;10.95;;;3.22;;
81960;SDS011;71462;50.650;6.888;2023-12-20T10:50:38;11.40;;;3.28;;
81960;SDS011;71462;50.650;6.888;2023-12-20T10:53:08;12.90;;;3.33;;
81960;SDS011;71462;50.650;6.888;2023-12-20T10:55:36;13.52;;;3.60;;
81960;SDS011;71462;50.650;6.888;2023-12-20T10:58:06;9.25;;;2.88;;
81960;SDS011;71462;50.650;6.888;2023-12-20T11:00:35;13.60;;;3.50;;
81960;SDS011;71462;50.650;6.888;2023-12-20T11:03:08;11.90;;;3.55;;
81960;SDS011;71462;50.650;6.888;2023-12-20T11:05:38;11.98;;;3.97;;
81960;SDS011;71462;50.650;6.888;2023-12-20T11:08:17;8.50;;;3.17;;
81960;SDS011;71462;50.650;6.888;2023-12-20T11:10:51;11.80;;;3.60;;
81960;SDS011;71462;50.650;6.888;2023-12-20T11:13:26;11.45;;;3.88;;
81960;SDS011;71462;50.650;6.888;2023-12-20T11:16:01;12.43;;;3.33;;
81960;SDS011;71462;50.650;6.888;2023-12-20T11:18:31;12.70;;;3.75;;
81960;SDS011;71462;50.650;6.888;2023-12-20T11:21:04;10.40;;;2.60;;
81960;SDS011;71462;50.650;6.888;2023-12-20T11:23:32;10.50;;;3.40;;
81960;SDS011;71462;50.650;6.888;2023-12-20T11:26:01;15.00;;;3.20;;
81960;SDS011;71462;50.650;6.888;2023-12-20T11:28:29;12.07;;;3.35;;
81960;SDS011;71462;50.650;6.888;2023-12-20T11:30:58;10.90;;;3.33;;
81960;SDS011;71462;50.650;6.888;2023-12-20T11:33:29;9.68;;;2.78;;
81960;SDS011;71462;50.650;6.888;2023-12-20T11:35:59;17.50;;;3.63;;
81960;SDS011;71462;50.650;6.888;2023-12-20T11:38:35;9.85;;;3.13;;
81960;SDS011;71462;50.650;6.888;2023-12-20T11:41:06;11.93;;;3.92;;
81960;SDS011;71462;50.650;6.888;2023-12-20T11:43:40;11.05;;;3.90;;
81960;SDS011;71462;50.650;6.888;2023-12-20T11:46:10;16.58;;;5.90;;
81960;SDS011;71462;50.650;6.888;2023-12-20T11:48:40;10.05;;;3.60;;
81960;SDS011;71462;50.650;6.888;2023-12-20T11:51:12;13.27;;;4.93;;
81960;SDS011;71462;50.650;6.888;2023-12-20T11:53:40;8.25;;;2.40;;
81960;SDS011;71462;50.650;6.888;2023-12-20T11:56:09;5.57;;;2.40;;
81960;SDS011;71462;50.650;6.888;2023-12-20T11:58:40;9.43;;;3.33;;
81960;SDS011;71462;50.650;6.888;2023-12-20T12:01:08;9.98;;;2.45;;
81960;SDS011;71462;50.650;6.888;2023-12-20T12:03:38;8.45;;;2.75;;
81960;SDS011;71462;50.650;6.888;2023-12-20T12:06:09;10.73;;;3.20;;
81960;SDS011;71462;50.650;6.888;2023-12-20T12:08:38;9.02;;;3.10;;
81960;SDS011;71462;50.650;6.888;2023-12-20T12:11:05;13.10;;;2.55;;
81960;SDS011;71462;50.650;6.888;2023-12-20T12:13:33;12.50;;;2.70;;
81960;SDS011;71462;50.650;6.888;2023-12-20T12:16:01;13.75;;;3.10;;
81960;SDS011;71462;50.650;6.888;2023-12-20T12:18:32;10.25;;;3.55;;
81960;SDS011;71462;50.650;6.888;2023-12-20T12:21:00;9.70;;;2.50;;
81960;SDS011;71462;50.650;6.888;2023-12-20T12:23:35;10.68;;;3.50;;
81960;SDS011;71462;50.650;6.888;2023-12-20T12:26:05;11.52;;;2.80;;
81960;SDS011;71462;50.650;6.888;2023-12-20T12:28:34;10.35;;;2.80;;
81960;SDS011;71462;50.650;6.888;2023-12-20T12:31:02;8.70;;;2.70;;
81960;SDS011;71462;50.650;6.888;2023-12-20T12:33:30;9.38;;;3.03;;
81960;SDS011;71462;50.650;6.888;2023-12-20T12:35:58;10.90;;;2.78;;
81960;SDS011;71462;50.650;6.888;2023-12-20T12:38:27;12.35;;;2.95;;
81960;SDS011;71462;50.650;6.888;2023-12-20T12:40:55;8.63;;;2.90;;
81960;SDS011;71462;50.650;6.888;2023-12-20T12:43:24;8.35;;;3.13;;
81960;SDS011;71462;50.650;6.888;2023-12-20T12:45:52;11.40;;;3.53;;
81960;SDS011;71462;50.650;6.888;2023-12-20T12:48:21;8.65;;;3.00;;
81960;SDS011;71462;50.650;6.888;2023-12-20T12:50:52;7.82;;;2.60;;
81960;SDS011;71462;50.650;6.888;2023-12-20T12:53:20;10.55;;;3.38;;
81960;SDS011;71462;50.650;6.888;2023-12-20T12:55:48;9.55;;;3.13;;
81960;SDS011;71462;50.650;6.888;2023-12-20T12:58:16;10.18;;;3.97;;
81960;SDS011;71462;50.650;6.888;2023-12-20T13:00:45;10.20;;;3.10;;
81960;SDS011;71462;50.650;6.888;2023-12-20T13:03:13;10.45;;;3.58;;
81960;SDS011;71462;50.650;6.888;2023-12-20T13:05:41;13.25;;;4.00;;
81960;SDS011;71462;50.650;6.888;2023-12-20T13:08:12;13.25;;;3.35;;
81960;SDS011;71462;50.650;6.888;2023-12-20T13:10:40;10.80;;;3.70;;
81960;SDS011;71462;50.650;6.888;2023-12-20T13:13:08;11.48;;;3.25;;
81960;SDS011;71462;50.650;6.888;2023-12-20T13:15:36;14.55;;;4.20;;
81960;SDS011;71462;50.650;6.888;2023-12-20T13:18:05;9.18;;;3.05;;
81960;SDS011;71462;50.650;6.888;2023-12-20T13:20:33;8.98;;;2.78;;
81960;SDS011;71462;50.650;6.888;2023-12-20T13:23:01;11.07;;;3.25;;
81960;SDS011;71462;50.650;6.888;2023-12-20T13:25:29;10.55;;;4.43;;
81960;SDS011;71462;50.650;6.888;2023-12-20T13:28:00;12.07;;;4.68;;
81960;SDS011;71462;50.650;6.888;2023-12-20T13:30:29;12.27;;;3.20;;
81960;SDS011;71462;50.650;6.888;2023-12-20T13:32:56;10.15;;;3.28;;
81960;SDS011;71462;50.650;6.888;2023-12-20T13:35:25;7.78;;;2.92;;
81960;SDS011;71462;50.650;6.888;2023-12-20T13:37:53;9.70;;;2.97;;
81960;SDS011;71462;50.650;6.888;2023-12-20T13:40:22;7.47;;;2.50;;
81960;SDS011;71462;50.650;6.888;2023-12-20T13:42:52;7.13;;;2.67;;
81960;SDS011;71462;50.650;6.888;2023-12-20T13:45:21;10.23;;;3.00;;
81960;SDS011;71462;50.650;6.888;2023-12-20T13:47:48;10.27;;;3.13;;
81960;SDS011;71462;50.650;6.888;2023-12-20T13:50:17;6.72;;;2.50;;
81960;SDS011;71462;50.650;6.888;2023-12-20T13:52:46;4.47;;;2.47;;
81960;SDS011;71462;50.650;6.888;2023-12-20T13:55:13;8.48;;;2.30;;
81960;SDS011;71462;50.650;6.888;2023-12-20T13:57:41;10.07;;;4.32;;
81960;SDS011;71462;50.650;6.888;2023-12-20T14:00:20;6.45;;;2.15;;
81960;SDS011;71462;50.650;6.888;2023-12-20T14:02:51;6.85;;;2.78;;
81960;SDS011;71462;50.650;6.888;2023-12-20T14:05:18;5.93;;;2.75;;
81960;SDS011;71462;50.650;6.888;2023-12-20T14:07:53;5.72;;;2.83;;
81960;SDS011;71462;50.650;6.888;2023-12-20T14:10:24;7.30;;;1.77;;
81960;SDS011;71462;50.650;6.888;2023-12-20T14:12:53;4.68;;;1.83;;
81960;SDS011;71462;50.650;6.888;2023-12-20T14:15:21;4.78;;;1.80;;
81960;SDS011;71462;50.650;6.888;2023-12-20T14:17:52;6.82;;;2.95;;
81960;SDS011;71462;50.650;6.888;2023-12-20T14:20:21;5.15;;;2.20;;
81960;SDS011;71462;50.650;6.888;2023-12-20T14:22:49;7.28;;;2.20;;
81960;SDS011;71462;50.650;6.888;2023-12-20T14:25:20;5.82;;;3.67;;
81960;SDS011;71462;50.650;6.888;2023-12-20T14:27:52;2.42;;;1.35;;
81960;SDS011;71462;50.650;6.888;2023-12-20T14:30:21;7.60;;;2.60;;
81960;SDS011;71462;50.650;6.888;2023-12-20T14:32:48;5.80;;;2.72;;
81960;SDS011;71462;50.650;6.888;2023-12-20T14:35:17;6.88;;;3.38;;
81960;SDS011;71462;50.650;6.888;2023-12-20T14:37:46;5.85;;;2.33;;
81960;SDS011;71462;50.650;6.888;2023-12-20T14:40:14;8.57;;;3.55;;
81960;SDS011;71462;50.650;6.888;2023-12-20T14:42:52;6.15;;;2.20;;
81960;SDS011;71462;50.650;6.888;2023-12-20T14:45:21;6.97;;;3.28;;
81960;SDS011;71462;50.650;6.888;2023-12-20T14:47:52;6.25;;;2.30;;
81960;SDS011;71462;50.650;6.888;2023-12-20T14:50:23;5.57;;;2.47;;